Time;durP1;ratioP1;P1;durP2;ratioP2;P2;SDS_P1;SDS_P2;PMS_P1;PMS_P2;Temp;Humidity;BMP_temperature;BMP_pressure;BME280_temperature;BME280_humidity;BME280_pressure;Samples;Min_cycle;Max_cycle;Signal;HPM_P1;HPM_P2
2021/04/22 00:00:18;;;;;;;10.13;6.97;;;;;;;7.06;75.02;99257.59;1745224;82;21115;-62
2021/04/22 00:02:45;;;;;;;11.80;7.37;;;;;;;7.06;74.94;99252.42;1745245;82;21292;-62
2021/04/22 00:05:27;;;;;;;10.10;7.65;;;;;;;7.06;74.80;99252.42;1731973;82;21532;-62
2021/04/22 00:07:54;;;;;;;7.53;6.28;;;;;;;7.03;74.79;99259.42;1713965;83;21112;-61
2021/04/22 00:10:33;;;;;;;15.38;9.83;;;;;;;7.01;74.74;99259.46;1732025;82;21083;-62
2021/04/22 00:13:09;;;;;;;16.62;10.53;;;;;;;7.05;74.90;99261.06;1910069;74;22732;-61
2021/04/22 00:15:38;;;;;;;10.70;9.05;;;;;;;7.00;75.00;99267.27;1849895;77;20931;-62
2021/04/22 00:18:07;;;;;;;14.00;10.63;;;;;;;6.97;75.07;99267.38;1849892;77;21367;-62
2021/04/22 00:20:36;;;;;;;9.60;8.60;;;;;;;6.97;75.05;99266.09;1849845;77;21481;-61
2021/04/22 00:23:10;;;;;;;9.55;7.83;;;;;;;6.93;75.14;99262.74;1834082;77;20982;-61
2021/04/22 00:25:37;;;;;;;9.15;8.10;;;;;;;6.93;75.27;99267.06;1816822;79;26550;-61
2021/04/22 00:28:07;;;;;;;9.00;8.10;;;;;;;6.91;75.39;99272.28;1816637;79;21045;-61
2021/04/22 00:30:35;;;;;;;9.00;8.10;;;;;;;6.88;75.42;99271.92;1816635;79;22118;-61
2021/04/22 00:33:05;;;;;;;8.43;7.55;;;;;;;6.84;75.36;99273.34;1816433;78;20982;-62
2021/04/22 00:35:32;;;;;;;8.05;7.25;;;;;;;6.78;75.30;99271.80;1816552;79;21108;-61
2021/04/22 00:38:00;;;;;;;9.03;7.50;;;;;;;6.72;75.49;99269.84;1816525;79;21476;-62
2021/04/22 00:40:29;;;;;;;8.93;8.03;;;;;;;6.66;75.74;99262.25;1816614;79;21489;-61
2021/04/22 00:43:01;;;;;;;9.50;7.97;;;;;;;6.59;76.03;99271.09;1816497;78;21189;-62
2021/04/22 00:45:28;;;;;;;8.03;7.15;;;;;;;6.52;76.25;99276.42;1816498;79;21076;-62
2021/04/22 00:47:56;;;;;;;9.48;7.35;;;;;;;6.46;76.40;99280.45;1816482;79;21045;-61
2021/04/22 00:50:27;;;;;;;13.83;7.65;;;;;;;6.40;76.49;99277.19;1816508;79;21116;-61
2021/04/22 00:52:56;;;;;;;8.08;7.12;;;;;;;6.33;76.69;99279.55;1816534;79;21042;-61
2021/04/22 00:55:25;;;;;;;9.33;8.05;;;;;;;6.26;76.82;99281.45;1816490;78;21352;-62
2021/04/22 00:57:53;;;;;;;8.90;7.80;;;;;;;6.21;77.03;99283.30;1816430;79;21086;-61
2021/04/22 01:00:25;;;;;;;9.18;8.15;;;;;;;6.16;77.37;99281.30;1816497;79;21022;-61
2021/04/22 01:02:52;;;;;;;9.68;7.70;;;;;;;6.12;77.66;99288.28;1816573;79;21105;-60
2021/04/22 01:05:32;;;;;;;9.88;8.73;;;;;;;6.11;77.87;99284.45;1816622;79;21063;-62
2021/04/22 01:08:00;;;;;;;8.18;7.37;;;;;;;6.08;78.06;99282.79;1816579;79;22252;-60
2021/04/22 01:10:28;;;;;;;7.78;7.05;;;;;;;6.06;78.18;99280.69;1816422;79;21061;-62
2021/04/22 01:12:55;;;;;;;9.50;7.35;;;;;;;6.02;78.03;99284.67;1795280;78;21045;-60
2021/04/22 01:15:27;;;;;;;13.43;9.60;;;;;;;5.99;78.22;99287.36;1789888;78;21191;-60
2021/04/22 01:17:56;;;;;;;10.13;8.25;;;;;;;5.98;78.38;99284.37;1790199;80;21041;-60
2021/04/22 01:20:31;;;;;;;9.10;7.60;;;;;;;5.97;78.50;99282.23;1789867;80;21421;-60
2021/04/22 01:23:01;;;;;;;8.55;7.75;;;;;;;5.97;78.77;99276.22;1789232;78;21076;-60
2021/04/22 01:25:34;;;;;;;8.88;7.25;;;;;;;5.94;78.88;99280.17;1789362;80;21050;-60
2021/04/22 01:28:05;;;;;;;8.45;6.62;;;;;;;5.91;78.93;99278.95;1789431;79;21557;-60
2021/04/22 01:30:35;;;;;;;8.93;7.58;;;;;;;5.87;78.87;99285.89;1789443;80;21596;-60
2021/04/22 01:33:04;;;;;;;9.40;7.25;;;;;;;5.80;78.81;99283.89;1789427;80;21620;-60
2021/04/22 01:35:38;;;;;;;8.78;7.03;;;;;;;5.75;79.01;99284.92;1789255;80;21581;-60
2021/04/22 01:38:06;;;;;;;8.15;7.35;;;;;;;5.70;79.22;99291.48;1789418;80;21034;-60
2021/04/22 01:40:35;;;;;;;7.87;7.08;;;;;;;5.67;79.39;99292.84;1774150;80;21112;-60
2021/04/22 01:43:03;;;;;;;8.00;7.20;;;;;;;5.62;79.39;99293.82;1789420;78;21541;-60
2021/04/22 01:45:32;;;;;;;9.95;7.03;;;;;;;5.56;79.23;99295.28;1789393;79;21216;-61
2021/04/22 01:47:59;;;;;;;9.35;8.25;;;;;;;5.48;79.52;99294.16;1789375;79;21061;-61
2021/04/22 01:50:28;;;;;;;8.80;7.35;;;;;;;5.44;79.77;99295.11;1789374;79;21466;-61
2021/04/22 01:52:57;;;;;;;11.63;7.37;;;;;;;5.39;79.82;99288.80;1789282;80;21466;-61
2021/04/22 01:55:37;;;;;;;9.65;7.70;;;;;;;5.35;79.93;99297.92;1789419;79;21052;-60
2021/04/22 01:58:06;;;;;;;8.95;7.83;;;;;;;5.30;80.19;99301.89;1789371;79;23575;-61
2021/04/22 02:00:37;;;;;;;7.90;7.10;;;;;;;5.26;80.12;99298.12;1789311;79;21133;-60
2021/04/22 02:03:06;;;;;;;9.15;8.18;;;;;;;5.20;79.72;99301.67;1789320;79;21113;-60
2021/04/22 02:05:37;;;;;;;8.78;7.80;;;;;;;5.11;80.11;99301.45;1789334;79;21092;-60
2021/04/22 02:08:06;;;;;;;9.88;7.37;;;;;;;5.08;80.52;99296.80;1789372;80;21104;-60
2021/04/22 02:10:36;;;;;;;8.38;7.53;;;;;;;5.07;80.81;99302.84;1789423;79;22230;-61
2021/04/22 02:13:05;;;;;;;9.23;7.47;;;;;;;5.06;81.01;99294.26;1808402;78;21144;-63
2021/04/22 02:15:32;;;;;;;10.25;8.85;;;;;;;5.08;81.09;99291.64;1815835;79;21097;-61
2021/04/22 02:18:00;;;;;;;12.90;9.85;;;;;;;5.08;81.16;99291.64;1815848;79;21513;-60
2021/04/22 02:20:27;;;;;;;36.23;20.08;;;;;;;5.07;81.23;99290.80;1815880;78;21029;-60
2021/04/22 02:22:55;;;;;;;31.27;20.12;;;;;;;5.07;81.24;99295.11;1815868;77;21231;-61
2021/04/22 02:25:25;;;;;;;43.25;25.02;;;;;;;5.06;81.25;99290.39;1815781;79;21516;-60
2021/04/22 02:27:55;;;;;;;51.98;29.80;;;;;;;5.05;81.14;99296.87;1815848;79;21140;-61
2021/04/22 02:30:28;;;;;;;28.23;17.80;;;;;;;5.01;81.04;99298.66;1815845;79;21140;-60
2021/04/22 02:32:56;;;;;;;15.43;10.95;;;;;;;4.98;81.00;99299.19;1815954;79;21457;-61
2021/04/22 02:35:28;;;;;;;12.50;9.18;;;;;;;4.95;81.09;99300.54;1815757;79;21367;-61
2021/04/22 02:37:56;;;;;;;14.98;10.45;;;;;;;4.94;81.42;99300.13;1815081;79;21084;-60
2021/04/22 02:40:26;;;;;;;14.75;11.68;;;;;;;4.94;81.39;99305.28;1815908;79;21104;-61
2021/04/22 02:42:57;;;;;;;19.02;13.30;;;;;;;4.90;81.28;99304.94;1815839;79;21108;-60
2021/04/22 02:45:28;;;;;;;17.92;12.13;;;;;;;4.88;81.45;99313.13;1815857;79;21100;-60
2021/04/22 02:47:56;;;;;;;17.65;11.28;;;;;;;4.84;81.57;99310.62;1815833;78;21370;-61
2021/04/22 02:50:27;;;;;;;16.35;10.40;;;;;;;4.82;81.35;99314.95;1815840;79;21117;-61
2021/04/22 02:52:54;;;;;;;12.65;8.78;;;;;;;4.78;81.63;99315.07;1815805;79;21088;-61
2021/04/22 02:55:22;;;;;;;11.20;8.85;;;;;;;4.75;81.89;99317.27;1815908;79;21533;-61
2021/04/22 02:57:51;;;;;;;11.95;8.93;;;;;;;4.75;82.07;99327.57;1811567;79;21160;-61
2021/04/22 03:00:22;;;;;;;10.63;8.98;;;;;;;4.74;82.08;99335.33;1815805;78;22146;-62
2021/04/22 03:02:49;;;;;;;9.43;7.70;;;;;;;4.70;82.05;99330.67;1815866;79;21490;-61
2021/04/22 03:05:18;;;;;;;10.65;8.20;;;;;;;4.70;82.27;99337.55;1815791;79;21045;-62
2021/04/22 03:07:45;;;;;;;12.33;8.20;;;;;;;4.70;82.65;99334.53;1815905;79;21442;-62
2021/04/22 03:10:16;;;;;;;10.23;9.13;;;;;;;4.72;82.88;99338.37;1815837;79;21136;-60
2021/04/22 03:12:43;;;;;;;12.03;8.65;;;;;;;4.75;82.99;99341.74;1817216;78;21520;-61
2021/04/22 03:15:13;;;;;;;18.60;9.13;;;;;;;4.79;82.98;99337.38;1818887;78;21168;-60
2021/04/22 03:17:41;;;;;;;9.98;8.00;;;;;;;4.87;83.08;99344.50;1818979;78;21128;-60
2021/04/22 03:20:10;;;;;;;7.75;6.95;;;;;;;5.03;83.08;99345.87;1818927;78;21497;-61
2021/04/22 03:22:38;;;;;;;20.60;9.98;;;;;;;5.22;82.94;99343.75;1818951;77;21053;-60
2021/04/22 03:25:11;;;;;;;8.48;7.58;;;;;;;5.45;82.55;99344.09;1818950;78;21040;-61
2021/04/22 03:27:38;;;;;;;8.85;7.85;;;;;;;5.70;82.03;99344.81;1819146;78;21136;-60
2021/04/22 03:30:10;;;;;;;10.63;7.60;;;;;;;5.98;81.36;99339.43;1818959;78;21057;-61
2021/04/22 03:32:38;;;;;;;22.00;11.03;;;;;;;6.27;80.61;99342.55;1819036;78;21049;-60
2021/04/22 03:35:08;;;;;;;16.00;12.10;;;;;;;6.53;79.61;99343.16;1818976;78;21057;-61
2021/04/22 03:37:36;;;;;;;29.15;13.15;;;;;;;6.81;78.43;99336.31;1819018;78;21490;-60
2021/04/22 03:40:05;;;;;;;14.68;10.63;;;;;;;7.12;77.60;99342.76;1818838;78;21132;-61
2021/04/22 03:42:33;;;;;;;13.25;9.78;;;;;;;7.45;76.59;99343.47;1818950;78;21116;-61
2021/04/22 03:45:00;;;;;;;12.60;9.45;;;;;;;7.76;75.35;99347.26;1818918;78;21497;-61
2021/04/22 03:47:28;;;;;;;13.00;7.85;;;;;;;7.98;74.13;99346.12;1819043;78;21470;-61
2021/04/22 03:49:55;;;;;;;8.08;7.28;;;;;;;8.15;73.40;99348.98;1818924;78;21319;-61
2021/04/22 03:52:22;;;;;;;10.58;7.72;;;;;;;8.40;72.63;99350.30;1818821;78;21097;-62
2021/04/22 03:54:52;;;;;;;15.13;8.20;;;;;;;8.72;71.75;99358.27;1818909;78;21140;-60
2021/04/22 03:57:20;;;;;;;9.23;7.00;;;;;;;9.05;70.63;99361.83;1819042;78;21163;-60
2021/04/22 03:59:48;;;;;;;8.03;7.20;;;;;;;9.39;69.22;99364.02;1818969;78;21045;-60
2021/04/22 04:02:18;;;;;;;8.70;7.30;;;;;;;9.74;67.93;99366.09;1818992;78;23659;-60
2021/04/22 04:04:45;;;;;;;16.55;8.60;;;;;;;10.10;66.88;99364.20;1818893;78;21049;-64
2021/04/22 04:07:13;;;;;;;11.48;7.95;;;;;;;10.46;65.45;99370.94;1818896;78;21184;-61
2021/04/22 04:09:41;;;;;;;8.65;7.80;;;;;;;10.77;64.07;99371.33;1818912;78;21148;-61
2021/04/22 04:12:10;;;;;;;9.53;8.43;;;;;;;11.01;63.18;99370.22;1818769;78;21069;-63
2021/04/22 04:14:37;;;;;;;13.08;8.30;;;;;;;11.25;61.72;99376.08;1818970;79;21505;-62
2021/04/22 04:17:05;;;;;;;11.25;8.38;;;;;;;11.43;61.00;99374.39;1818904;79;21152;-62
2021/04/22 04:19:33;;;;;;;9.48;8.28;;;;;;;11.53;60.47;99377.42;1818974;78;21185;-63
2021/04/22 04:22:00;;;;;;;10.10;7.80;;;;;;;11.72;60.29;99376.94;1818886;77;21065;-62
2021/04/22 04:24:27;;;;;;;10.38;8.73;;;;;;;11.99;59.65;99373.02;1818921;79;21040;-61
2021/04/22 04:26:55;;;;;;;17.73;10.40;;;;;;;12.34;58.67;99383.50;1818942;78;21195;-61
2021/04/22 04:29:22;;;;;;;12.00;9.18;;;;;;;12.68;58.00;99377.41;1818858;79;21568;-62
2021/04/22 04:31:50;;;;;;;12.53;8.73;;;;;;;13.04;57.00;99379.39;1818834;79;21048;-63
2021/04/22 04:34:18;;;;;;;17.75;9.68;;;;;;;13.36;55.96;99373.80;1818891;79;21164;-61
2021/04/22 04:36:47;;;;;;;11.50;8.98;;;;;;;13.55;54.49;99374.10;1818912;79;21057;-61
2021/04/22 04:39:14;;;;;;;13.55;9.30;;;;;;;13.60;54.19;99376.81;1818898;79;21258;-62
2021/04/22 04:41:42;;;;;;;21.55;10.93;;;;;;;13.82;53.81;99371.70;1818842;79;21132;-61
2021/04/22 04:44:11;;;;;;;11.35;8.55;;;;;;;14.12;52.91;99370.82;1818890;78;21147;-61
2021/04/22 04:46:39;;;;;;;11.55;8.43;;;;;;;14.36;52.14;99370.34;1818874;79;21053;-62
2021/04/22 04:49:09;;;;;;;10.10;8.78;;;;;;;14.62;51.64;99369.66;1818932;78;21049;-62
2021/04/22 04:51:36;;;;;;;12.15;8.83;;;;;;;14.93;50.87;99375.22;1818889;79;21124;-62
2021/04/22 04:54:05;;;;;;;33.95;10.38;;;;;;;15.32;50.33;99378.94;1818772;79;21588;-62
2021/04/22 04:56:32;;;;;;;18.05;10.13;;;;;;;15.75;49.37;99375.33;1818852;78;21085;-62
2021/04/22 04:59:00;;;;;;;16.15;9.30;;;;;;;16.06;48.62;99372.86;1818941;78;21126;-62
2021/04/22 05:01:27;;;;;;;22.67;10.13;;;;;;;16.29;48.19;99373.12;1819024;78;21191;-62
2021/04/22 05:03:55;;;;;;;20.48;9.30;;;;;;;16.54;47.55;99371.87;1819055;78;21468;-62
2021/04/22 05:06:23;;;;;;;21.75;10.00;;;;;;;16.74;46.80;99377.11;1818317;77;21112;-63
2021/04/22 05:08:51;;;;;;;8.65;7.80;;;;;;;16.75;46.35;99378.33;1795401;78;21186;-64
2021/04/22 05:11:19;;;;;;;21.05;9.70;;;;;;;16.86;46.46;99374.48;1797382;78;21503;-63
2021/04/22 05:13:46;;;;;;;14.90;9.65;;;;;;;17.03;45.96;99381.66;1789706;78;21467;-63
2021/04/22 05:16:18;;;;;;;13.85;8.85;;;;;;;17.10;45.65;99377.20;1802579;78;21327;-64
2021/04/22 05:18:48;;;;;;;11.70;7.75;;;;;;;17.14;45.37;99372.58;1806354;78;21595;-63
2021/04/22 05:21:17;;;;;;;15.58;8.63;;;;;;;17.18;45.00;99367.01;1797520;78;21047;-63
2021/04/22 05:23:45;;;;;;;15.32;7.60;;;;;;;17.15;44.71;99387.40;1771574;80;21162;-63
2021/04/22 05:26:13;;;;;;;25.88;9.83;;;;;;;17.00;44.26;99387.97;1728821;81;21131;-63
2021/04/22 05:28:40;;;;;;;11.30;8.38;;;;;;;16.74;44.24;99394.19;1744914;81;21210;-62
2021/04/22 05:31:09;;;;;;;15.55;8.63;;;;;;;16.47;44.86;99386.34;1727078;81;21639;-63
2021/04/22 05:33:36;;;;;;;39.40;9.55;;;;;;;16.36;44.90;99393.63;1754336;81;21135;-63
2021/04/22 05:36:06;;;;;;;16.97;8.38;;;;;;;16.26;45.34;99388.61;1755218;81;21141;-62
2021/04/22 05:38:33;;;;;;;13.35;7.92;;;;;;;16.28;44.86;99394.59;1754468;81;21574;-63
2021/04/22 05:41:01;;;;;;;13.28;11.55;;;;;;;16.14;45.23;99392.89;1753530;81;21383;-64
2021/04/22 05:43:31;;;;;;;10.18;8.63;;;;;;;16.05;45.41;99392.16;1754419;81;21522;-62
2021/04/22 05:45:59;;;;;;;25.48;10.20;;;;;;;15.92;45.46;99387.35;1732725;81;21571;-62
2021/04/22 05:48:28;;;;;;;11.15;8.08;;;;;;;15.79;45.86;99389.90;1744600;81;21603;-62
2021/04/22 05:50:56;;;;;;;23.10;10.55;;;;;;;15.66;46.23;99384.23;1749957;82;21081;-63
2021/04/22 05:53:24;;;;;;;21.57;10.30;;;;;;;15.50;46.77;99385.18;1747995;81;21544;-64
2021/04/22 05:55:52;;;;;;;15.28;9.05;;;;;;;15.24;47.48;99392.97;1743806;81;21993;-63
2021/04/22 05:58:21;;;;;;;12.75;8.55;;;;;;;15.24;47.48;99392.97;1744402;81;21189;-62
2021/04/22 06:00:48;;;;;;;17.25;9.80;;;;;;;15.12;47.81;99395.89;1749893;81;21161;-62
2021/04/22 06:03:16;;;;;;;18.23;11.05;;;;;;;15.04;47.81;99395.03;1755581;81;21170;-63
2021/04/22 06:05:44;;;;;;;20.50;8.10;;;;;;;14.95;48.12;99394.30;1754306;81;21428;-63
2021/04/22 06:08:11;;;;;;;18.48;9.63;;;;;;;14.97;48.22;99395.05;1754317;81;21528;-62
2021/04/22 06:10:39;;;;;;;13.62;7.53;;;;;;;14.99;48.25;99400.17;1754475;81;21488;-62
2021/04/22 06:13:08;;;;;;;15.93;8.90;;;;;;;15.00;48.23;99394.84;1750865;81;21139;-63
2021/04/22 06:15:36;;;;;;;16.20;8.75;;;;;;;15.02;48.78;99393.44;1718343;82;21084;-64
2021/04/22 06:18:05;;;;;;;8.48;7.55;;;;;;;15.03;48.68;99397.28;1739589;82;21374;-62
2021/04/22 06:20:33;;;;;;;33.98;10.60;;;;;;;15.04;49.29;99391.11;1714699;82;21143;-63
2021/04/22 06:23:02;;;;;;;15.93;7.87;;;;;;;15.06;49.34;99389.23;1727320;82;21564;-64
2021/04/22 06:25:30;;;;;;;8.65;7.75;;;;;;;15.02;49.66;99390.81;1758260;81;21062;-63
2021/04/22 06:27:59;;;;;;;12.80;8.58;;;;;;;15.05;49.53;99389.33;1772632;80;21046;-62
2021/04/22 06:30:30;;;;;;;13.95;8.95;;;;;;;15.08;50.17;99395.70;1777436;80;21319;-62
2021/04/22 06:33:00;;;;;;;16.65;7.83;;;;;;;15.14;49.97;99389.63;1786124;80;21058;-63
2021/04/22 06:35:28;;;;;;;10.98;7.37;;;;;;;15.25;50.04;99397.28;1738616;80;21193;-64
2021/04/22 06:37:55;;;;;;;18.02;8.60;;;;;;;15.34;49.78;99383.15;1786388;80;21545;-62
2021/04/22 06:40:24;;;;;;;6.85;5.95;;;;;;;15.40;49.06;99389.77;1779511;80;21106;-62
2021/04/22 06:42:52;;;;;;;8.10;6.05;;;;;;;15.39;48.15;99391.55;1773000;80;21184;-63
2021/04/22 06:45:20;;;;;;;17.48;7.08;;;;;;;15.39;48.05;99387.61;1755227;80;21492;-63
2021/04/22 06:47:47;;;;;;;8.33;6.70;;;;;;;15.41;47.57;99392.30;1716844;83;21140;-62
2021/04/22 06:50:19;;;;;;;7.97;6.30;;;;;;;15.44;47.74;99387.33;1757792;81;21682;-62
2021/04/22 06:52:47;;;;;;;13.53;8.78;;;;;;;15.51;47.49;99382.09;1771083;80;21135;-62
2021/04/22 06:55:22;;;;;;;11.63;6.95;;;;;;;15.63;47.15;99384.42;1760603;81;22111;-62
2021/04/22 06:57:51;;;;;;;8.58;6.05;;;;;;;15.75;46.35;99390.22;1760402;81;21154;-62
2021/04/22 07:00:21;;;;;;;9.30;6.15;;;;;;;15.82;46.06;99392.33;1761767;81;21491;-63
2021/04/22 07:02:49;;;;;;;20.68;6.55;;;;;;;15.82;45.25;99392.80;1761885;81;21055;-62
2021/04/22 07:05:18;;;;;;;19.82;8.25;;;;;;;15.69;45.31;99389.29;1762008;81;21471;-63
2021/04/22 07:07:46;;;;;;;19.20;8.40;;;;;;;15.64;45.25;99390.88;1731653;82;21386;-61
2021/04/22 07:10:16;;;;;;;15.88;8.65;;;;;;;15.65;45.46;99393.88;1761849;81;21209;-62
2021/04/22 07:12:43;;;;;;;11.57;6.15;;;;;;;15.69;45.98;99388.81;1746840;81;21162;-61
2021/04/22 07:15:12;;;;;;;8.95;5.47;;;;;;;15.77;45.73;99394.43;1750139;81;21048;-62
2021/04/22 07:17:41;;;;;;;12.43;5.15;;;;;;;15.84;45.08;99393.55;1745291;82;21197;-62
2021/04/22 07:20:19;;;;;;;12.73;5.30;;;;;;;15.91;45.36;99394.84;1777697;80;21292;-62
2021/04/22 07:22:49;;;;;;;36.03;6.30;;;;;;;16.00;44.62;99391.61;1772814;80;21072;-64
2021/04/22 07:25:17;;;;;;;6.22;5.35;;;;;;;16.13;44.78;99398.23;1776925;80;21062;-62
2021/04/22 07:27:45;;;;;;;11.73;5.22;;;;;;;16.23;44.30;99392.73;1777658;80;21155;-61
2021/04/22 07:30:14;;;;;;;5.65;5.08;;;;;;;16.24;44.09;99393.58;1777734;80;21111;-62
2021/04/22 07:32:41;;;;;;;10.78;5.55;;;;;;;16.28;43.74;99395.06;1772959;80;21566;-63
2021/04/22 07:35:10;;;;;;;12.10;6.28;;;;;;;16.26;43.59;99400.41;1773248;80;21484;-62
2021/04/22 07:37:39;;;;;;;10.68;5.70;;;;;;;16.30;44.00;99395.81;1777591;80;21142;-62
2021/04/22 07:40:08;;;;;;;9.33;4.87;;;;;;;16.39;43.92;99391.25;1777712;80;21076;-62
2021/04/22 07:42:36;;;;;;;10.40;4.25;;;;;;;16.47;43.20;99395.53;1777786;80;21177;-63
2021/04/22 07:45:06;;;;;;;5.05;4.17;;;;;;;16.54;42.16;99389.77;1751450;81;21454;-62
2021/04/22 07:47:33;;;;;;;10.40;4.12;;;;;;;16.58;42.31;99393.04;1719569;83;21248;-62
2021/04/22 07:50:05;;;;;;;7.30;4.08;;;;;;;16.63;42.36;99390.95;1719634;82;21191;-62
2021/04/22 07:52:32;;;;;;;12.33;4.12;;;;;;;16.72;41.79;99392.13;1725216;81;21135;-62
2021/04/22 07:55:00;;;;;;;7.47;4.15;;;;;;;16.73;41.28;99395.12;1737431;81;21076;-63
2021/04/22 07:57:27;;;;;;;6.37;4.17;;;;;;;16.71;41.12;99394.39;1738845;81;21220;-62
2021/04/22 08:00:00;;;;;;;5.25;4.03;;;;;;;16.67;41.71;99392.91;1739165;81;21123;-63
2021/04/22 08:02:31;;;;;;;13.65;4.97;;;;;;;16.68;42.26;99395.44;1741771;81;21217;-63
2021/04/22 08:04:59;;;;;;;8.30;3.72;;;;;;;16.79;42.18;99398.63;1755930;81;21076;-63
2021/04/22 08:07:27;;;;;;;11.35;4.90;;;;;;;16.90;40.70;99386.94;1755969;81;21047;-63
2021/04/22 08:09:55;;;;;;;13.22;4.28;;;;;;;16.94;40.93;99391.04;1742932;81;21503;-63
2021/04/22 08:12:22;;;;;;;5.33;4.20;;;;;;;17.05;40.49;99395.54;1742120;81;21125;-63
2021/04/22 08:14:53;;;;;;;6.70;4.22;;;;;;;17.10;40.88;99389.03;1740787;81;21183;-63
2021/04/22 08:17:20;;;;;;;10.72;4.08;;;;;;;17.21;40.45;99395.67;1751031;82;21154;-63
2021/04/22 08:19:49;;;;;;;7.75;3.72;;;;;;;17.32;40.12;99391.00;1751263;82;21064;-63
2021/04/22 08:22:17;;;;;;;20.82;4.20;;;;;;;17.37;40.02;99388.89;1744934;81;22330;-63
2021/04/22 08:24:50;;;;;;;6.92;3.85;;;;;;;17.39;39.20;99394.86;1721612;82;21587;-62
2021/04/22 08:27:20;;;;;;;5.60;3.98;;;;;;;17.41;38.80;99389.49;1721140;82;21178;-66
2021/04/22 08:29:59;;;;;;;10.68;4.10;;;;;;;17.45;38.97;99384.39;1721578;82;21257;-63
2021/04/22 08:32:33;;;;;;;15.58;4.80;;;;;;;17.74;38.80;99379.24;1732437;81;21190;-64
2021/04/22 08:35:00;;;;;;;7.75;4.10;;;;;;;17.74;38.80;99379.24;1786109;79;21311;-64
2021/04/22 08:37:28;;;;;;;7.00;3.70;;;;;;;18.02;37.88;99376.73;1782679;80;21503;-63
2021/04/22 08:39:56;;;;;;;7.55;4.35;;;;;;;18.02;37.88;99376.73;1800970;79;21162;-65
2021/04/22 08:42:24;;;;;;;6.97;4.15;;;;;;;18.20;38.26;99368.80;1810440;79;21061;-65
2021/04/22 08:44:51;;;;;;;15.10;5.62;;;;;;;18.43;37.78;99368.39;1814384;78;21147;-65
2021/04/22 08:47:19;;;;;;;10.98;4.72;;;;;;;18.64;37.03;99373.87;1815767;79;21119;-63
2021/04/22 08:49:47;;;;;;;16.02;4.40;;;;;;;18.85;36.25;99366.12;1815724;78;21036;-63
2021/04/22 08:52:15;;;;;;;8.98;4.00;;;;;;;19.03;35.64;99366.01;1815720;79;21084;-63
2021/04/22 08:54:42;;;;;;;11.40;4.45;;;;;;;19.18;35.44;99370.58;1815045;78;21222;-62
2021/04/22 08:57:10;;;;;;;7.85;4.05;;;;;;;19.27;35.61;99370.69;1814922;79;21083;-63
2021/04/22 08:59:37;;;;;;;8.58;3.85;;;;;;;19.32;35.15;99378.23;1815424;78;21363;-63
2021/04/22 09:02:07;;;;;;;8.20;3.50;;;;;;;19.30;34.33;99370.09;1815666;78;21048;-63
2021/04/22 09:05:13;;;;;;;10.00;3.92;;;;;;;19.17;34.35;99364.47;1815744;79;21104;-62
2021/04/22 09:07:42;;;;;;;7.92;3.72;;;;;;;19.16;34.45;99364.11;1815760;78;21131;-65
2021/04/22 09:10:13;;;;;;;3.67;3.08;;;;;;;19.21;34.92;99367.20;1815803;79;21012;-63
2021/04/22 09:12:41;;;;;;;32.88;5.90;;;;;;;19.23;35.15;99359.17;1815849;79;21627;-63
2021/04/22 09:15:14;;;;;;;6.17;3.42;;;;;;;19.16;34.41;99366.75;1815517;79;21068;-63
2021/04/22 09:17:41;;;;;;;7.50;3.60;;;;;;;19.09;33.48;99362.91;1815963;79;26293;-61
2021/04/22 09:20:12;;;;;;;9.98;3.70;;;;;;;18.89;33.70;99360.50;1815761;79;21028;-61
2021/04/22 09:22:41;;;;;;;5.22;3.60;;;;;;;18.71;34.21;99355.81;1813442;79;21189;-63
2021/04/22 09:25:19;;;;;;;9.13;5.15;;;;;;;18.59;34.63;99360.20;1813247;78;21133;-66
2021/04/22 09:27:47;;;;;;;9.13;4.12;;;;;;;18.56;34.89;99358.63;1812951;78;21178;-65
2021/04/22 09:30:16;;;;;;;15.38;5.45;;;;;;;18.73;34.75;99356.53;1815814;79;21482;-62
2021/04/22 09:32:44;;;;;;;6.67;3.95;;;;;;;18.90;34.14;99355.59;1815863;78;21112;-63
2021/04/22 09:35:14;;;;;;;5.53;3.40;;;;;;;18.96;33.24;99350.33;1815774;79;21136;-62
2021/04/22 09:37:44;;;;;;;9.45;3.92;;;;;;;18.93;33.14;99347.93;1815865;78;22359;-61
2021/04/22 09:40:26;;;;;;;3.40;3.10;;;;;;;18.99;33.85;99347.91;1815721;78;21635;-64
2021/04/22 09:42:55;;;;;;;6.65;3.17;;;;;;;19.04;33.90;99352.34;1816096;79;21104;-62
2021/04/22 09:45:26;;;;;;;7.67;3.33;;;;;;;19.02;34.35;99337.97;1787267;79;21145;-64
2021/04/22 09:47:56;;;;;;;12.10;4.33;;;;;;;19.12;34.55;99348.65;1812027;79;21113;-62
2021/04/22 09:50:28;;;;;;;7.85;3.00;;;;;;;19.24;33.56;99341.91;1814966;79;21361;-63
2021/04/22 09:52:58;;;;;;;4.70;2.77;;;;;;;19.22;33.37;99342.99;1814919;79;21136;-62
2021/04/22 09:55:29;;;;;;;3.50;2.62;;;;;;;19.16;33.24;99341.70;1815796;78;21112;-63
2021/04/22 09:57:57;;;;;;;26.17;4.62;;;;;;;19.18;32.97;99335.80;1815612;79;21041;-62
2021/04/22 10:00:31;;;;;;;8.08;4.25;;;;;;;19.20;33.14;99330.41;1815661;78;21180;-62
2021/04/22 10:03:01;;;;;;;6.08;2.85;;;;;;;19.17;33.21;99340.75;1815136;79;22326;-62
2021/04/22 10:05:33;;;;;;;11.40;3.40;;;;;;;19.20;33.52;99329.09;1815765;78;21089;-62
2021/04/22 10:08:12;;;;;;;14.70;3.60;;;;;;;19.32;33.43;99323.34;1815774;79;21493;-63
2021/04/22 10:10:45;;;;;;;9.58;3.20;;;;;;;19.48;33.17;99327.73;1815765;78;21191;-63
2021/04/22 10:13:14;;;;;;;12.00;3.65;;;;;;;19.51;32.78;99333.64;1814584;79;21592;-63
2021/04/22 10:15:52;;;;;;;14.73;3.45;;;;;;;19.49;32.64;99339.97;1814677;78;21137;-63
2021/04/22 10:18:20;;;;;;;17.90;3.60;;;;;;;19.46;33.06;99339.73;1815185;79;21085;-63
2021/04/22 10:20:49;;;;;;;4.92;3.08;;;;;;;19.50;32.35;99331.13;1815738;78;21053;-62
2021/04/22 10:23:17;;;;;;;18.05;4.00;;;;;;;19.58;32.92;99325.58;1815806;78;21053;-62
2021/04/22 10:25:45;;;;;;;14.45;3.47;;;;;;;19.77;32.14;99328.91;1814388;78;21591;-62
2021/04/22 10:28:15;;;;;;;13.90;3.15;;;;;;;19.96;31.89;99329.56;1802125;79;21202;-62
2021/04/22 10:30:45;;;;;;;14.13;3.30;;;;;;;20.10;30.63;99330.56;1798356;79;21143;-63
2021/04/22 10:33:12;;;;;;;7.90;3.98;;;;;;;20.11;30.60;99324.32;1810189;78;21541;-64
2021/04/22 10:35:43;;;;;;;7.35;2.90;;;;;;;20.04;30.69;99317.86;1814118;79;21066;-63
2021/04/22 10:38:16;;;;;;;22.60;3.92;;;;;;;19.95;31.05;99319.96;1814130;79;21067;-62
2021/04/22 10:40:51;;;;;;;11.90;3.30;;;;;;;19.89;30.57;99322.61;1779745;79;21205;-63
2021/04/22 10:43:28;;;;;;;11.28;3.55;;;;;;;19.70;30.66;99321.13;1783124;80;21539;-63
2021/04/22 10:45:59;;;;;;;5.37;3.37;;;;;;;19.54;31.19;99318.89;1783158;80;21487;-62
2021/04/22 10:48:26;;;;;;;6.87;4.37;;;;;;;19.57;31.63;99312.06;1784947;79;21987;-63
2021/04/22 10:50:55;;;;;;;11.00;3.47;;;;;;;19.72;31.70;99313.09;1814740;78;21123;-62
2021/04/22 10:53:24;;;;;;;6.80;3.22;;;;;;;19.84;31.36;99301.52;1787831;79;21130;-63
2021/04/22 10:55:54;;;;;;;13.13;3.50;;;;;;;19.90;30.96;99299.22;1799056;79;21236;-62
2021/04/22 10:58:32;;;;;;;7.25;3.27;;;;;;;19.87;31.01;99302.10;1785596;79;21948;-63
2021/04/22 11:01:04;;;;;;;5.20;3.10;;;;;;;19.85;30.73;99296.11;1814019;79;21071;-64
2021/04/22 11:03:42;;;;;;;10.03;2.87;;;;;;;19.85;30.33;99288.67;1814258;79;21179;-62
2021/04/22 11:06:19;;;;;;;22.82;4.12;;;;;;;19.79;30.05;99289.17;1809519;78;21438;-63
2021/04/22 11:11:34;;;;;;;4.25;2.50;;;;;;;19.54;30.54;99285.08;1873526;76;22716;-65
2021/04/22 11:14:15;;;;;;;14.38;2.80;;;;;;;19.48;30.62;99282.91;1841460;78;21081;-65
2021/04/22 11:16:53;;;;;;;5.67;2.90;;;;;;;19.51;31.34;99284.00;1836118;78;21066;-63
2021/04/22 11:19:23;;;;;;;4.33;2.45;;;;;;;19.67;31.04;99286.23;1815135;78;21081;-62
2021/04/22 11:21:56;;;;;;;10.32;2.47;;;;;;;19.82;30.79;99277.88;1819975;78;21061;-65
2021/04/22 11:24:33;;;;;;;;;;;;;;;19.89;29.99;99273.78;1808553;78;21628;-66
2021/04/22 11:27:10;;;;;;;17.17;3.92;;;;;;;19.85;29.17;99275.48;1806043;78;20268;-65
2021/04/22 11:29:54;;;;;;;15.65;2.80;;;;;;;19.77;29.28;99274.81;1807887;79;21364;-65
2021/04/22 11:32:37;;;;;;;5.60;2.47;;;;;;;19.73;29.74;99259.34;1776490;80;21159;-64
2021/04/22 11:35:16;;;;;;;10.57;2.93;;;;;;;19.79;29.82;99260.98;1776868;80;21525;-65
2021/04/22 11:37:47;;;;;;;5.03;2.92;;;;;;;19.81;30.08;99253.77;1780084;79;21611;-64
2021/04/22 11:40:23;;;;;;;2.42;2.20;;;;;;;19.68;29.60;99256.24;1804080;79;21088;-64
2021/04/22 11:42:52;;;;;;;8.35;3.15;;;;;;;19.43;29.81;99254.25;1807412;79;21227;-64
2021/04/22 11:45:25;;;;;;;7.35;2.65;;;;;;;19.30;30.51;99242.20;1807229;78;21161;-64